Time;durP1;ratioP1;P1;durP2;ratioP2;P2;SDS_P1;SDS_P2;PMS_P1;PMS_P2;Temp;Humidity;BMP_temperature;BMP_pressure;BME280_temperature;BME280_humidity;BME280_pressure;Samples;Min_cycle;Max_cycle;Signal;HPM_P1;HPM_P2
2022/03/29 00:00:17;;;;;;;36.88;21.23;;;6.60;99.90;;;;;;4979769;28;20038;-77
2022/03/29 00:02:43;;;;;;;41.55;21.85;;;6.50;99.90;;;;;;4996017;28;20041;-77
2022/03/29 00:05:09;;;;;;;36.80;20.98;;;6.50;99.90;;;;;;4995372;28;20044;-77
2022/03/29 00:07:35;;;;;;;37.10;21.30;;;6.50;99.90;;;;;;4978858;28;20108;-77
2022/03/29 00:10:04;;;;;;;39.35;21.70;;;6.50;99.90;;;;;;4995182;28;20069;-77
2022/03/29 00:12:31;;;;;;;34.85;20.83;;;6.50;99.90;;;;;;4979083;28;20531;-77
2022/03/29 00:14:57;;;;;;;38.58;20.60;;;6.50;99.90;;;;;;4995024;28;20037;-77
2022/03/29 00:17:22;;;;;;;41.40;21.02;;;6.50;99.90;;;;;;4979026;28;20056;-77
2022/03/29 00:19:48;;;;;;;37.50;20.83;;;6.50;99.90;;;;;;4995178;28;20496;-77
2022/03/29 00:22:13;;;;;;;34.78;19.77;;;6.40;99.90;;;;;;4995309;28;20041;-77
2022/03/29 00:24:39;;;;;;;38.58;21.52;;;6.40;99.90;;;;;;4994491;28;20121;-77
2022/03/29 00:27:05;;;;;;;35.20;20.48;;;6.40;99.90;;;;;;4994670;28;20089;-77
2022/03/29 00:29:31;;;;;;;36.10;20.63;;;6.40;99.90;;;;;;4978888;28;20042;-77
2022/03/29 00:31:57;;;;;;;39.58;21.38;;;6.40;99.90;;;;;;4995338;28;20377;-77
2022/03/29 00:34:22;;;;;;;35.40;20.90;;;6.50;99.90;;;;;;4994705;28;20053;-78
2022/03/29 00:36:48;;;;;;;37.20;20.58;;;6.40;99.90;;;;;;4994962;28;20467;-77
2022/03/29 00:39:13;;;;;;;36.92;20.63;;;6.40;99.90;;;;;;4978569;28;20103;-78
2022/03/29 00:41:39;;;;;;;40.85;20.83;;;6.40;99.90;;;;;;4994939;28;20125;-78
2022/03/29 00:44:06;;;;;;;34.05;20.52;;;6.40;99.90;;;;;;4994640;28;20069;-77
2022/03/29 00:46:33;;;;;;;34.95;20.60;;;6.40;99.90;;;;;;4978209;28;20132;-77
2022/03/29 00:48:58;;;;;;;37.53;20.77;;;6.40;99.90;;;;;;4993843;28;20045;-77
2022/03/29 00:51:24;;;;;;;36.38;19.95;;;6.40;99.90;;;;;;4994123;28;20484;-77
2022/03/29 00:53:50;;;;;;;30.40;19.42;;;6.40;99.90;;;;;;4994623;28;20535;-77
2022/03/29 00:56:19;;;;;;;33.97;19.65;;;6.40;99.90;;;;;;4994717;28;20125;-77
2022/03/29 00:58:45;;;;;;;36.28;19.90;;;6.40;99.90;;;;;;4994467;28;20037;-77
2022/03/29 01:01:11;;;;;;;33.00;19.02;;;6.40;99.90;;;;;;4994083;28;20060;-77
2022/03/29 01:03:37;;;;;;;34.83;19.35;;;6.50;99.90;;;;;;4977730;28;20080;-77
2022/03/29 01:06:02;;;;;;;32.92;18.75;;;6.40;99.90;;;;;;4994099;28;20151;-77
2022/03/29 01:08:28;;;;;;;35.47;20.80;;;6.40;99.90;;;;;;4989939;28;20041;-77
2022/03/29 01:10:54;;;;;;;34.92;19.75;;;6.40;99.90;;;;;;4974649;28;20038;-77
2022/03/29 01:13:19;;;;;;;38.45;20.70;;;6.40;99.90;;;;;;4958081;28;20038;-77
2022/03/29 01:15:46;;;;;;;33.35;19.10;;;6.30;99.90;;;;;;4992521;28;20125;-77
2022/03/29 01:18:13;;;;;;;32.15;19.58;;;6.50;99.90;;;;;;4980494;28;20560;-77
2022/03/29 01:20:40;;;;;;;28.08;19.00;;;6.40;99.90;;;;;;4974397;28;20499;-77
2022/03/29 01:23:08;;;;;;;31.20;19.48;;;6.40;99.90;;;;;;4985334;28;20503;-77
2022/03/29 01:25:37;;;;;;;31.85;18.83;;;6.30;99.90;;;;;;4977781;28;20080;-77
2022/03/29 01:28:05;;;;;;;29.58;19.65;;;6.30;99.90;;;;;;4993514;28;20049;-77
2022/03/29 01:30:31;;;;;;;26.40;18.33;;;6.20;99.90;;;;;;4977171;28;20072;-77
2022/03/29 01:33:00;;;;;;;27.60;17.33;;;6.20;99.90;;;;;;4993480;28;20125;-78
2022/03/29 01:35:26;;;;;;;26.10;17.92;;;6.20;99.90;;;;;;4977846;28;20516;-77
2022/03/29 01:37:53;;;;;;;28.23;18.25;;;6.10;99.90;;;;;;4988858;28;20046;-77
2022/03/29 01:40:21;;;;;;;33.08;18.23;;;6.10;99.90;;;;;;4992827;28;20070;-77
2022/03/29 01:42:48;;;;;;;27.38;18.25;;;6.10;99.90;;;;;;4977315;28;20045;-77
2022/03/29 01:45:15;;;;;;;26.35;18.45;;;6.10;99.90;;;;;;4993790;28;20449;-77
2022/03/29 01:47:40;;;;;;;27.95;18.17;;;6.10;99.90;;;;;;4980713;28;20046;-77
2022/03/29 01:50:07;;;;;;;26.83;17.67;;;6.00;99.90;;;;;;4988753;28;20053;-77
2022/03/29 01:52:45;;;;;;;26.60;17.65;;;6.00;99.90;;;;;;4977090;28;20046;-77
2022/03/29 01:55:12;;;;;;;26.63;17.35;;;6.00;99.90;;;;;;4977484;28;20069;-77
2022/03/29 01:57:38;;;;;;;28.65;18.05;;;6.00;99.90;;;;;;4993173;28;20088;-77
2022/03/29 02:02:50;;;;;;;30.00;19.17;;;5.90;99.90;;;;;;4993118;28;20056;-77
2022/03/29 02:05:17;;;;;;;30.15;18.15;;;5.90;99.90;;;;;;4995340;28;20400;-77
2022/03/29 02:07:43;;;;;;;28.48;18.70;;;5.90;99.90;;;;;;5000839;28;20077;-78
2022/03/29 02:10:09;;;;;;;27.45;18.35;;;5.90;99.90;;;;;;4981686;28;20069;-77
2022/03/29 02:12:35;;;;;;;31.15;18.17;;;5.90;99.90;;;;;;4997576;28;20037;-77
2022/03/29 02:15:00;;;;;;;28.17;17.55;;;5.90;99.90;;;;;;4997630;28;20046;-77
2022/03/29 02:17:26;;;;;;;30.95;18.80;;;5.90;99.90;;;;;;4997363;28;20572;-77
2022/03/29 02:19:51;;;;;;;28.77;18.90;;;5.90;99.90;;;;;;4997612;28;20038;-77
2022/03/29 02:22:17;;;;;;;28.05;18.33;;;5.90;99.90;;;;;;4997388;28;20455;-77
2022/03/29 02:24:43;;;;;;;30.50;19.45;;;5.90;99.90;;;;;;4997346;28;20454;-77
2022/03/29 02:27:09;;;;;;;33.38;19.73;;;5.90;99.90;;;;;;4996968;28;20030;-77
2022/03/29 02:29:35;;;;;;;31.45;19.38;;;5.90;99.90;;;;;;4994060;28;20555;-77
2022/03/29 02:32:01;;;;;;;33.22;19.65;;;5.90;99.90;;;;;;4994045;28;20138;-77
2022/03/29 02:34:27;;;;;;;30.00;19.65;;;6.00;99.90;;;;;;4977563;28;20121;-77
2022/03/29 02:36:52;;;;;;;31.52;19.90;;;6.00;99.90;;;;;;4991272;28;20547;-77
2022/03/29 02:39:18;;;;;;;33.20;20.42;;;6.00;99.90;;;;;;4987364;28;20041;-77
2022/03/29 02:41:43;;;;;;;30.83;19.60;;;6.00;99.90;;;;;;4980946;28;20527;-77
2022/03/29 02:44:09;;;;;;;33.65;19.98;;;6.00;99.90;;;;;;4992836;28;20042;-78
2022/03/29 02:46:34;;;;;;;31.88;18.88;;;6.00;99.90;;;;;;4981292;28;20119;-78
2022/03/29 02:49:01;;;;;;;30.80;19.88;;;6.00;99.90;;;;;;4989457;28;20046;-76
2022/03/29 02:51:26;;;;;;;31.30;19.33;;;6.00;99.90;;;;;;4977645;28;20049;-78
2022/03/29 02:53:52;;;;;;;31.08;20.58;;;6.00;99.90;;;;;;4977372;28;20042;-78
2022/03/29 02:56:18;;;;;;;27.60;19.00;;;6.00;99.90;;;;;;4994143;28;20484;-78
2022/03/29 02:58:43;;;;;;;31.63;20.13;;;5.90;99.90;;;;;;4993593;28;20034;-78
2022/03/29 03:01:09;;;;;;;28.05;18.75;;;5.90;99.90;;;;;;4972899;28;20081;-77
2022/03/29 03:03:34;;;;;;;29.55;19.80;;;5.90;99.90;;;;;;4996562;28;20216;-77
2022/03/29 03:06:00;;;;;;;29.63;19.02;;;5.80;99.90;;;;;;4996635;28;20056;-77
2022/03/29 03:08:25;;;;;;;29.77;18.85;;;5.90;99.90;;;;;;4992810;28;20260;-77
2022/03/29 03:10:51;;;;;;;32.88;20.40;;;5.80;99.90;;;;;;4977128;28;20128;-77
2022/03/29 03:13:16;;;;;;;31.80;20.00;;;5.90;99.90;;;;;;4960818;28;20042;-77
2022/03/29 03:15:42;;;;;;;32.83;20.77;;;5.80;99.90;;;;;;4976447;28;20152;-77
2022/03/29 03:18:09;;;;;;;31.83;19.30;;;5.80;99.90;;;;;;4990449;28;20481;-77
2022/03/29 03:20:35;;;;;;;32.33;20.08;;;5.80;99.90;;;;;;4996339;28;20408;-77
2022/03/29 03:23:01;;;;;;;31.73;20.63;;;5.80;99.90;;;;;;4996001;28;20048;-77
2022/03/29 03:25:27;;;;;;;29.23;19.45;;;5.80;99.90;;;;;;4996410;28;20038;-77
2022/03/29 03:27:53;;;;;;;30.40;19.90;;;5.80;99.90;;;;;;4979673;28;20459;-77
2022/03/29 03:30:19;;;;;;;30.05;20.13;;;5.80;99.90;;;;;;4979922;28;20037;-77
2022/03/29 03:32:46;;;;;;;30.17;20.77;;;5.80;99.90;;;;;;4995967;28;20053;-78
2022/03/29 03:35:12;;;;;;;33.38;21.10;;;5.80;99.90;;;;;;4995815;28;20060;-77
2022/03/29 03:37:38;;;;;;;30.95;21.25;;;5.80;99.90;;;;;;4986308;28;20038;-77
2022/03/29 03:40:06;;;;;;;30.75;20.42;;;5.80;99.90;;;;;;4976693;28;20065;-78
2022/03/29 03:42:32;;;;;;;35.10;22.33;;;5.80;99.90;;;;;;4980617;28;20077;-77
2022/03/29 03:44:58;;;;;;;31.88;20.10;;;5.80;99.90;;;;;;4995718;28;20513;-77
2022/03/29 03:47:25;;;;;;;31.98;21.38;;;5.80;99.90;;;;;;4995704;28;20103;-77
2022/03/29 03:49:51;;;;;;;30.67;21.33;;;5.80;99.90;;;;;;4995607;28;20084;-77
2022/03/29 03:52:16;;;;;;;28.77;20.90;;;5.80;99.90;;;;;;4995377;28;20345;-78
2022/03/29 03:54:42;;;;;;;34.60;22.05;;;5.80;99.90;;;;;;4995498;28;20133;-77
2022/03/29 03:57:07;;;;;;;31.02;22.13;;;5.80;99.90;;;;;;4995243;28;20037;-77
2022/03/29 03:59:33;;;;;;;29.48;20.80;;;5.80;99.90;;;;;;4995471;28;20042;-77
2022/03/29 04:01:59;;;;;;;29.98;20.92;;;5.90;99.90;;;;;;4995600;28;20130;-77
2022/03/29 04:04:25;;;;;;;33.30;22.58;;;5.90;99.90;;;;;;4995409;28;20034;-77
2022/03/29 04:06:51;;;;;;;32.65;21.58;;;5.80;99.90;;;;;;4992931;28;20497;-77
2022/03/29 04:09:17;;;;;;;31.60;21.65;;;5.80;99.90;;;;;;4978450;28;20482;-77
2022/03/29 04:11:44;;;;;;;31.05;22.15;;;5.80;99.90;;;;;;4978923;28;20037;-77
2022/03/29 04:14:09;;;;;;;33.78;22.10;;;5.80;99.90;;;;;;4980840;28;20374;-77
2022/03/29 04:16:35;;;;;;;31.75;21.50;;;5.80;99.90;;;;;;4994823;28;20149;-77
2022/03/29 04:19:01;;;;;;;34.75;21.75;;;5.80;99.90;;;;;;4994794;28;20092;-77
2022/03/29 04:21:27;;;;;;;31.73;20.42;;;5.80;99.90;;;;;;4978616;28;20389;-78
2022/03/29 04:23:53;;;;;;;33.10;22.23;;;5.70;99.90;;;;;;4977900;28;20103;-77
2022/03/29 04:26:19;;;;;;;31.60;21.27;;;5.80;99.90;;;;;;4992106;28;20042;-78
2022/03/29 04:28:44;;;;;;;33.65;21.17;;;5.70;99.90;;;;;;4990058;28;20053;-77
2022/03/29 04:31:10;;;;;;;31.88;20.75;;;5.70;99.90;;;;;;4994946;28;20149;-77
2022/03/29 04:33:36;;;;;;;30.27;21.05;;;5.70;99.90;;;;;;4994260;28;20125;-77
2022/03/29 04:36:03;;;;;;;34.35;21.42;;;5.70;99.90;;;;;;4995036;28;20292;-78
2022/03/29 04:38:28;;;;;;;32.03;21.30;;;5.70;99.90;;;;;;4994175;28;20034;-78
2022/03/29 04:40:54;;;;;;;30.00;20.60;;;5.70;99.90;;;;;;4978951;28;20132;-77
2022/03/29 04:43:19;;;;;;;34.38;21.95;;;5.80;99.90;;;;;;4978486;28;20037;-77
2022/03/29 04:45:45;;;;;;;30.13;20.27;;;5.80;99.90;;;;;;4994970;28;20049;-77
2022/03/29 04:48:12;;;;;;;30.52;20.63;;;5.80;99.90;;;;;;4994232;28;20045;-77
2022/03/29 04:50:38;;;;;;;31.48;20.55;;;5.80;99.90;;;;;;4994694;28;20095;-77
2022/03/29 04:53:03;;;;;;;32.03;20.67;;;5.80;99.90;;;;;;4994576;28;20050;-77
2022/03/29 04:55:30;;;;;;;31.75;20.92;;;5.80;99.90;;;;;;4994595;28;20038;-77
2022/03/29 04:57:56;;;;;;;31.67;21.20;;;5.80;99.90;;;;;;4993787;28;20034;-77
2022/03/29 05:00:21;;;;;;;33.35;21.63;;;5.80;99.90;;;;;;4991209;28;20408;-77
2022/03/29 05:02:47;;;;;;;33.03;21.50;;;5.80;99.90;;;;;;5000688;28;20045;-77
2022/03/29 05:05:13;;;;;;;31.00;20.30;;;5.80;99.90;;;;;;4987280;28;20468;-77
2022/03/29 05:07:40;;;;;;;32.22;20.60;;;5.80;99.90;;;;;;4979174;28;20037;-77
2022/03/29 05:10:08;;;;;;;31.20;21.48;;;5.80;99.90;;;;;;4994215;28;20046;-78
2022/03/29 05:12:44;;;;;;;34.15;21.55;;;5.80;99.90;;;;;;4974363;28;20050;-77
2022/03/29 05:15:12;;;;;;;31.83;21.65;;;5.80;99.90;;;;;;4994262;28;20196;-77
2022/03/29 05:17:39;;;;;;;36.45;23.25;;;5.80;99.90;;;;;;4977585;28;20037;-76
2022/03/29 05:20:06;;;;;;;33.78;21.35;;;5.70;99.90;;;;;;4994677;28;20038;-77
2022/03/29 05:22:32;;;;;;;31.52;21.23;;;5.70;99.90;;;;;;4978686;28;20077;-84
2022/03/29 05:24:58;;;;;;;36.05;22.13;;;5.70;99.90;;;;;;4979471;28;20463;-77
2022/03/29 05:27:24;;;;;;;34.88;20.90;;;5.70;99.90;;;;;;4993205;28;20796;-76
2022/03/29 05:29:49;;;;;;;31.90;19.80;;;5.80;99.90;;;;;;4991338;28;20045;-77
2022/03/29 05:32:18;;;;;;;30.58;20.63;;;5.80;99.90;;;;;;4994944;28;20049;-77
2022/03/29 05:34:44;;;;;;;33.08;22.00;;;5.80;99.90;;;;;;5001938;28;20133;-77
2022/03/29 05:37:10;;;;;;;32.60;20.83;;;5.80;99.90;;;;;;4993645;28;20045;-77
2022/03/29 05:39:36;;;;;;;35.28;21.98;;;5.90;99.90;;;;;;4984622;28;20093;-76
2022/03/29 05:42:01;;;;;;;34.20;21.27;;;5.90;99.90;;;;;;4977334;28;20037;-76
2022/03/29 05:44:27;;;;;;;33.92;21.67;;;5.90;99.90;;;;;;4977586;28;20049;-76
2022/03/29 05:49:36;;;;;;;34.40;20.67;;;5.90;99.90;;;;;;4993878;28;20092;-76
2022/03/29 05:52:02;;;;;;;32.92;21.20;;;6.00;99.90;;;;;;4994105;28;20065;-76
2022/03/29 05:54:27;;;;;;;32.47;21.30;;;6.00;99.90;;;;;;4977539;28;20038;-77
2022/03/29 05:56:54;;;;;;;33.15;20.95;;;6.00;99.90;;;;;;4993508;28;20060;-76
2022/03/29 05:59:19;;;;;;;36.90;21.48;;;6.00;99.90;;;;;;4993414;28;20107;-76
2022/03/29 06:01:45;;;;;;;31.85;20.40;;;6.00;99.90;;;;;;4992008;28;20132;-75
2022/03/29 06:04:10;;;;;;;33.50;21.95;;;6.00;99.90;;;;;;4993769;28;20037;-76
2022/03/29 06:06:38;;;;;;;35.70;21.67;;;6.10;99.90;;;;;;4993914;28;20045;-76
2022/03/29 06:09:04;;;;;;;31.02;21.30;;;6.10;99.90;;;;;;4994917;28;20096;-78
2022/03/29 06:11:29;;;;;;;33.22;21.05;;;6.10;99.90;;;;;;4978924;28;20147;-78
2022/03/29 06:13:55;;;;;;;33.92;21.20;;;6.10;99.90;;;;;;4989520;28;20489;-77
2022/03/29 06:16:21;;;;;;;34.55;21.45;;;6.20;99.90;;;;;;4991582;28;20057;-78
2022/03/29 06:18:47;;;;;;;35.33;20.98;;;6.20;99.90;;;;;;4992999;28;20034;-77
2022/03/29 06:21:13;;;;;;;31.73;19.73;;;6.20;99.90;;;;;;4993073;28;20126;-77
2022/03/29 06:23:38;;;;;;;33.70;21.83;;;6.20;99.90;;;;;;4992223;28;20034;-76
2022/03/29 06:26:04;;;;;;;38.08;21.25;;;6.30;99.90;;;;;;4993454;28;20073;-76
2022/03/29 06:28:30;;;;;;;30.50;20.60;;;6.30;99.90;;;;;;4993321;28;20050;-77
2022/03/29 06:30:56;;;;;;;31.85;20.23;;;6.40;99.90;;;;;;4994337;28;20038;-77
2022/03/29 06:33:22;;;;;;;34.13;19.88;;;6.50;99.90;;;;;;4977212;28;20477;-78
2022/03/29 06:35:49;;;;;;;32.88;20.77;;;6.50;99.90;;;;;;4992645;28;20057;-78
2022/03/29 06:38:20;;;;;;;32.20;20.63;;;6.60;99.90;;;;;;4993039;28;20410;-78
2022/03/29 06:40:47;;;;;;;33.15;20.05;;;6.60;99.90;;;;;;4976986;28;20475;-78
2022/03/29 06:43:13;;;;;;;35.50;19.98;;;6.60;99.90;;;;;;4993451;28;20050;-78
2022/03/29 06:45:39;;;;;;;35.88;22.42;;;6.70;99.90;;;;;;4992883;28;20038;-78
2022/03/29 06:48:05;;;;;;;33.40;21.95;;;6.70;99.90;;;;;;4975595;28;20033;-78
2022/03/29 06:50:32;;;;;;;33.92;20.75;;;6.70;99.90;;;;;;4993267;28;20145;-78
2022/03/29 06:52:59;;;;;;;33.13;20.50;;;6.70;99.90;;;;;;4996419;28;20107;-77
2022/03/29 06:55:26;;;;;;;29.83;18.60;;;6.70;99.90;;;;;;4980434;28;20511;-78
2022/03/29 06:57:52;;;;;;;37.38;21.77;;;6.70;99.90;;;;;;4996348;28;20088;-77
2022/03/29 07:00:18;;;;;;;32.50;19.58;;;6.70;99.90;;;;;;4995485;28;20506;-78
2022/03/29 07:02:48;;;;;;;34.50;20.67;;;6.80;99.90;;;;;;4979592;28;20084;-78
2022/03/29 07:05:14;;;;;;;34.08;21.17;;;6.70;99.90;;;;;;4996075;28;20053;-78
2022/03/29 07:07:41;;;;;;;34.65;20.08;;;6.80;99.90;;;;;;4979451;28;20424;-78
2022/03/29 07:12:58;;;;;;;30.63;19.85;;;6.80;99.90;;;;;;4995305;28;20045;-78
2022/03/29 07:15:24;;;;;;;34.00;20.73;;;6.80;99.90;;;;;;5011123;28;20045;-78
2022/03/29 07:17:50;;;;;;;33.03;20.42;;;6.90;99.90;;;;;;4979860;28;20507;-78
2022/03/29 07:20:19;;;;;;;35.63;20.48;;;6.90;99.90;;;;;;4996075;28;20069;-78
2022/03/29 07:22:48;;;;;;;31.88;19.98;;;6.90;99.90;;;;;;4996432;28;20038;-78
2022/03/29 07:25:18;;;;;;;33.67;20.63;;;7.00;99.90;;;;;;4980053;28;20046;-78
2022/03/29 07:27:44;;;;;;;30.40;19.85;;;7.00;99.90;;;;;;4979768;28;20033;-78
2022/03/29 07:30:11;;;;;;;31.42;19.48;;;7.10;99.90;;;;;;4995731;28;20389;-78
2022/03/29 07:32:54;;;;;;;33.78;20.63;;;7.20;99.90;;;;;;4979520;28;20164;-78
2022/03/29 07:54:52;;;;;;;;;;;;;;;;;;;;;
2022/03/29 08:27:25;;;;;;;37.67;22.40;;;8.60;99.90;;;;;;4878177;29;20127;-76
2022/03/29 08:30:04;;;;;;;38.10;23.05;;;8.70;99.90;;;;;;4824985;29;20052;-75
2022/03/29 08:32:45;;;;;;;38.40;22.77;;;8.90;99.90;;;;;;4831641;29;20077;-75
2022/03/29 08:35:12;;;;;;;37.83;22.52;;;9.00;99.90;;;;;;4834590;29;20055;-75
2022/03/29 08:37:42;;;;;;;36.38;23.42;;;9.10;99.90;;;;;;4916502;29;20136;-77
2022/03/29 08:40:25;;;;;;;35.90;22.17;;;9.10;99.90;;;;;;4907672;29;20051;-77
2022/03/29 08:43:39;;;;;;;36.10;22.38;;;9.20;99.90;;;;;;4908719;29;20043;-77
2022/03/29 08:46:51;;;;;;;;;;;;;;;;;;;;;
2022/03/29 08:49:56;;;;;;;31.52;20.80;;;9.30;99.90;;;;;;4918318;29;20055;-76
2022/03/29 08:56:12;;;;;;;;;;;9.70;99.90;;;;;;5077031;22;20056;-76
2022/03/29 08:58:49;;;;;;;29.38;18.48;;;9.70;99.90;;;;;;4989241;28;19917;-76
2022/03/29 09:01:53;;;;;;;30.00;19.52;;;9.70;99.90;;;;;;4995061;28;20069;-76
2022/03/29 09:05:17;;;;;;;29.70;19.52;;;9.80;99.90;;;;;;4977522;28;20195;-76
2022/03/29 09:08:38;;;;;;;29.75;19.75;;;9.90;99.90;;;;;;4925158;28;20066;-76
2022/03/29 09:19:10;;;;;;;32.10;20.17;;;10.50;99.90;;;;;;4869624;29;20431;-76
2022/03/29 09:22:42;;;;;;;;;;;;;;;;;;;;;
2022/03/29 09:29:15;;;;;;;30.05;20.33;;;11.60;99.90;;;;;;5002051;28;20514;-76
2022/03/29 09:32:39;;;;;;;;;;;;;;;;;;;;;
2022/03/29 09:35:48;;;;;;;30.02;20.52;;;11.70;99.90;;;;;;5012903;28;20085;-76
2022/03/29 09:39:08;;;;;;;29.80;20.40;;;11.60;99.90;;;;;;4987409;28;20068;-75
2022/03/29 09:42:23;;;;;;;29.25;21.10;;;12.00;99.90;;;;;;4991591;28;20137;-75
2022/03/29 09:45:42;;;;;;;28.70;20.77;;;12.40;99.90;;;;;;5013516;28;20033;-76
2022/03/29 09:52:37;;;;;;;30.10;21.60;;;12.60;99.90;;;;;;5008083;28;20141;-77
2022/03/29 09:55:53;;;;;;;30.95;22.42;;;12.40;99.90;;;;;;4907533;29;20049;-78
2022/03/29 09:59:27;;;;;;;29.10;21.65;;;12.50;99.90;;;;;;4955107;28;20057;-77
2022/03/29 10:02:18;;;;;;;33.42;21.60;;;12.40;99.90;;;;;;4992687;28;20037;-78
2022/03/29 10:04:52;;;;;;;31.27;20.15;;;12.60;98.60;;;;;;4996653;28;20037;-76
2022/03/29 10:07:41;;;;;;;28.45;20.27;;;12.50;99.90;;;;;;4998905;28;20128;-78
2022/03/29 10:10:37;;;;;;;27.55;20.75;;;12.80;99.90;;;;;;4994168;28;20046;-78
2022/03/29 10:13:46;;;;;;;28.52;19.90;;;13.20;99.90;;;;;;4981289;28;20046;-78
2022/03/29 10:20:41;;;;;;;30.75;20.42;;;13.50;99.90;;;;;;4966173;28;20528;-77
2022/03/29 10:23:18;;;;;;;31.92;21.05;;;13.10;99.80;;;;;;4943163;28;20054;-78
2022/03/29 10:25:55;;;;;;;27.67;20.02;;;12.90;95.40;;;;;;4992229;28;20108;-78
2022/03/29 10:28:31;;;;;;;27.23;20.05;;;12.70;98.50;;;;;;4995040;28;20029;-78
2022/03/29 10:31:04;;;;;;;26.23;18.90;;;12.70;98.70;;;;;;5005236;28;20037;-78
2022/03/29 10:33:34;;;;;;;27.13;18.90;;;13.10;98.40;;;;;;5008011;28;20087;-78
2022/03/29 10:36:24;;;;;;;27.77;18.77;;;13.80;93.10;;;;;;5007534;28;20049;-78
2022/03/29 10:38:59;;;;;;;28.23;18.95;;;14.40;93.40;;;;;;5007997;28;20049;-79
2022/03/29 10:41:49;;;;;;;23.50;17.60;;;14.90;92.80;;;;;;5007920;28;20040;-79
2022/03/29 10:44:22;;;;;;;23.63;16.52;;;15.20;79.80;;;;;;5008394;28;20065;-79
2022/03/29 10:46:53;;;;;;;26.88;17.42;;;15.20;83.60;;;;;;5008699;28;20045;-78
2022/03/29 10:49:48;;;;;;;24.65;17.88;;;14.80;86.30;;;;;;5011106;28;20105;-78
2022/03/29 10:52:23;;;;;;;26.30;17.67;;;14.10;92.00;;;;;;5009314;28;20631;-78
2022/03/29 10:55:33;;;;;;;26.25;17.65;;;14.40;89.80;;;;;;5008273;28;20041;-78
2022/03/29 10:58:16;;;;;;;24.13;17.13;;;14.90;93.30;;;;;;5006585;28;20041;-77
2022/03/29 11:01:00;;;;;;;26.58;18.45;;;15.80;74.40;;;;;;5004381;28;20357;-77
2022/03/29 11:03:36;;;;;;;27.88;18.02;;;16.10;80.10;;;;;;5000348;28;20411;-77
2022/03/29 11:06:17;;;;;;;22.85;15.85;;;16.30;66.80;;;;;;4999648;28;20393;-77
2022/03/29 11:08:51;;;;;;;25.50;17.65;;;16.30;67.80;;;;;;5000001;28;20040;-77
2022/03/29 11:11:35;;;;;;;22.70;17.42;;;16.40;81.20;;;;;;4999703;28;20103;-77
2022/03/29 11:14:40;;;;;;;27.50;18.30;;;16.80;81.50;;;;;;5022095;23;20041;-79
2022/03/29 11:17:11;;;;;;;25.40;17.80;;;17.30;68.70;;;;;;5002292;28;20577;-76
2022/03/29 11:19:46;;;;;;;27.88;17.92;;;17.30;71.40;;;;;;5012690;28;20468;-77
2022/03/29 11:22:35;;;;;;;22.67;18.38;;;17.40;66.50;;;;;;5000237;28;20049;-77
2022/03/29 11:25:06;;;;;;;26.48;18.63;;;17.60;68.60;;;;;;5016109;28;20041;-77
2022/03/29 11:27:41;;;;;;;28.33;18.60;;;17.60;62.10;;;;;;5038268;22;20459;-78
2022/03/29 11:30:09;;;;;;;23.02;19.17;;;17.30;66.10;;;;;;4991293;28;20037;-77
2022/03/29 11:32:38;;;;;;;23.90;17.83;;;17.20;64.80;;;;;;5004246;28;20038;-77
2022/03/29 11:35:07;;;;;;;23.25;17.42;;;16.70;69.40;;;;;;4980368;28;20049;-77
2022/03/29 11:37:40;;;;;;;21.33;16.27;;;16.30;65.50;;;;;;5013993;28;20049;-77
2022/03/29 11:40:08;;;;;;;23.52;17.60;;;16.40;64.80;;;;;;5016049;28;20403;-77
2022/03/29 11:42:51;;;;;;;23.63;18.02;;;16.50;63.70;;;;;;5015978;28;20084;-77
2022/03/29 11:45:18;;;;;;;23.13;16.83;;;16.80;62.70;;;;;;5016394;28;20395;-77
2022/03/29 11:47:55;;;;;;;24.83;16.63;;;17.10;64.40;;;;;;5015850;28;20037;-77
2022/03/29 11:50:32;;;;;;;24.27;17.67;;;17.60;62.30;;;;;;4999792;28;20128;-77
2022/03/29 11:52:59;;;;;;;23.55;17.45;;;17.80;61.00;;;;;;5015916;28;20041;-77
2022/03/29 11:55:25;;;;;;;21.30;17.40;;;17.80;57.90;;;;;;4999616;28;20034;-77
2022/03/29 11:57:52;;;;;;;23.02;18.23;;;17.80;59.10;;;;;;4999262;28;20033;-77
2022/03/29 12:00:28;;;;;;;24.75;17.80;;;18.10;62.60;;;;;;4999528;28;20029;-78
2022/03/29 12:02:54;;;;;;;23.83;16.90;;;18.60;60.70;;;;;;4999163;28;20044;-78
2022/03/29 12:05:25;;;;;;;21.40;16.63;;;18.80;61.30;;;;;;4999464;28;20052;-78
2022/03/29 12:08:02;;;;;;;21.20;16.02;;;19.10;58.80;;;;;;4999209;28;20125;-78
2022/03/29 12:10:34;;;;;;;22.00;15.40;;;19.30;55.70;;;;;;4996890;28;20582;-78
2022/03/29 12:13:00;;;;;;;19.42;15.57;;;19.50;56.60;;;;;;5010460;28;20045;-78
2022/03/29 12:15:25;;;;;;;25.67;16.90;;;19.50;53.50;;;;;;5012889;28;20519;-78
2022/03/29 12:20:45;;;;;;;24.35;16.50;;;19.50;55.60;;;;;;5026979;28;20415;-78
2022/03/29 12:23:29;;;;;;;27.30;16.88;;;19.80;53.50;;;;;;5011333;28;20480;-78
2022/03/29 12:25:56;;;;;;;23.17;16.52;;;19.70;52.20;;;;;;5014472;28;20041;-78
2022/03/29 12:28:23;;;;;;;24.50;16.17;;;19.80;54.40;;;;;;5011788;28;20053;-77
2022/03/29 12:30:49;;;;;;;21.20;15.38;;;20.00;53.20;;;;;;5011279;28;20046;-77
2022/03/29 12:33:16;;;;;;;19.70;15.27;;;19.60;51.30;;;;;;5012497;28;20138;-77
2022/03/29 12:35:41;;;;;;;23.27;16.35;;;19.20;53.90;;;;;;4993879;28;20105;-77
2022/03/29 12:38:11;;;;;;;25.63;16.75;;;19.40;52.50;;;;;;5012644;28;20065;-78
2022/03/29 12:40:37;;;;;;;22.15;15.60;;;19.50;54.30;;;;;;5003182;28;20040;-78
2022/03/29 12:43:05;;;;;;;20.20;14.23;;;19.60;50.30;;;;;;5007827;28;20041;-78
2022/03/29 12:45:32;;;;;;;25.83;16.95;;;19.00;51.30;;;;;;4994836;28;20054;-78
2022/03/29 12:47:58;;;;;;;24.80;16.35;;;18.60;52.80;;;;;;5011924;28;20069;-78
2022/03/29 12:50:25;;;;;;;22.73;16.50;;;18.80;54.90;;;;;;4998774;28;20050;-78
2022/03/29 12:52:51;;;;;;;23.45;15.57;;;18.80;55.20;;;;;;5025033;28;20048;-78
2022/03/29 12:55:21;;;;;;;22.90;16.00;;;19.00;52.70;;;;;;5011639;28;20474;-78
2022/03/29 12:57:47;;;;;;;20.20;15.13;;;18.60;55.00;;;;;;4994187;28;20030;-78
2022/03/29 13:00:16;;;;;;;20.17;15.70;;;18.40;54.70;;;;;;5011394;28;20045;-78
2022/03/29 13:02:46;;;;;;;21.27;16.23;;;17.90;52.50;;;;;;5013115;28;20415;-78
2022/03/29 13:05:12;;;;;;;21.63;16.75;;;17.00;55.50;;;;;;5003944;28;20041;-78
2022/03/29 13:07:57;;;;;;;21.98;16.40;;;16.70;59.80;;;;;;5010034;28;20041;-78
2022/03/29 13:10:33;;;;;;;21.65;16.25;;;16.90;61.70;;;;;;5010959;28;20077;-77
2022/03/29 13:13:01;;;;;;;21.63;14.43;;;17.10;59.20;;;;;;5013021;28;20468;-77
2022/03/29 13:15:36;;;;;;;19.02;15.60;;;17.00;55.50;;;;;;5011820;28;20124;-78
2022/03/29 13:18:04;;;;;;;21.92;15.50;;;16.50;56.70;;;;;;5006099;28;20365;-78
2022/03/29 13:20:35;;;;;;;22.63;15.63;;;16.20;57.60;;;;;;5010930;28;20120;-78
2022/03/29 13:23:00;;;;;;;23.58;16.00;;;15.90;61.00;;;;;;4990399;28;20042;-78
2022/03/29 13:25:36;;;;;;;22.40;16.17;;;15.90;63.50;;;;;;5004628;28;20052;-78
2022/03/29 13:28:04;;;;;;;22.55;16.20;;;15.90;63.20;;;;;;5008960;28;20458;-77
2022/03/29 13:30:30;;;;;;;25.52;15.93;;;16.00;63.90;;;;;;5011746;28;20124;-77
2022/03/29 13:32:59;;;;;;;21.15;15.45;;;16.10;64.30;;;;;;5007914;28;20055;-77
2022/03/29 13:35:25;;;;;;;23.00;16.27;;;16.10;62.40;;;;;;5010791;28;20092;-77
2022/03/29 13:37:51;;;;;;;20.70;16.33;;;15.90;61.80;;;;;;4986714;28;20069;-77
2022/03/29 13:40:16;;;;;;;27.65;17.00;;;15.80;60.50;;;;;;5011764;28;20069;-77
2022/03/29 13:42:42;;;;;;;22.77;16.85;;;15.50;62.30;;;;;;5008687;28;20045;-78
2022/03/29 13:45:10;;;;;;;21.60;16.30;;;15.10;68.00;;;;;;5005882;28;20076;-78
2022/03/29 13:47:37;;;;;;;19.58;16.45;;;15.00;67.00;;;;;;5004189;28;20044;-77
2022/03/29 13:50:05;;;;;;;24.27;17.27;;;14.70;70.00;;;;;;5006230;28;20041;-77
2022/03/29 13:52:31;;;;;;;22.48;16.15;;;14.60;70.30;;;;;;4997884;28;20319;-77
2022/03/29 13:54:56;;;;;;;22.10;16.30;;;14.30;75.00;;;;;;5008180;28;20037;-78
2022/03/29 13:57:22;;;;;;;21.13;16.98;;;14.20;78.50;;;;;;4994985;28;20045;-77
2022/03/29 13:59:48;;;;;;;22.17;16.08;;;14.20;80.30;;;;;;5011634;28;20037;-77
2022/03/29 14:02:14;;;;;;;25.23;16.55;;;14.50;79.90;;;;;;5008991;28;20042;-77
2022/03/29 14:04:40;;;;;;;26.55;17.23;;;15.50;75.50;;;;;;5028772;28;20107;-77
2022/03/29 14:07:06;;;;;;;26.25;16.65;;;16.20;64.90;;;;;;5012589;28;20428;-77
2022/03/29 14:09:31;;;;;;;24.05;16.52;;;16.50;62.30;;;;;;5018433;28;20049;-77
2022/03/29 14:11:57;;;;;;;22.55;15.77;;;16.40;60.90;;;;;;4996728;28;20418;-77
2022/03/29 14:14:23;;;;;;;23.13;15.95;;;16.20;64.60;;;;;;4995458;28;20052;-78
2022/03/29 14:16:49;;;;;;;25.27;15.32;;;15.90;65.20;;;;;;4991237;28;20129;-78
2022/03/29 14:19:14;;;;;;;25.80;15.80;;;15.60;65.10;;;;;;5013220;28;20053;-79
2022/03/29 14:21:40;;;;;;;21.73;14.77;;;15.30;65.90;;;;;;4994000;28;20052;-80